sensor_id;sensor_type;location;lat;lon;timestamp;P1;durP1;ratioP1;P2;durP2;ratioP2
67747;SDS011;54543;50.712;6.070;2022-12-29T00:01:15;1.20;;;0.80;;
67747;SDS011;54543;50.712;6.070;2022-12-29T00:03:41;0.90;;;0.70;;
67747;SDS011;54543;50.712;6.070;2022-12-29T00:06:06;1.02;;;0.80;;
67747;SDS011;54543;50.712;6.070;2022-12-29T00:08:32;1.63;;;0.70;;
67747;SDS011;54543;50.712;6.070;2022-12-29T00:11:07;1.17;;;0.90;;
67747;SDS011;54543;50.712;6.070;2022-12-29T00:13:34;1.02;;;0.80;;
67747;SDS011;54543;50.712;6.070;2022-12-29T00:16:18;0.80;;;0.70;;
67747;SDS011;54543;50.712;6.070;2022-12-29T00:18:43;0.85;;;0.70;;
67747;SDS011;54543;50.712;6.070;2022-12-29T00:21:16;1.27;;;0.50;;
67747;SDS011;54543;50.712;6.070;2022-12-29T00:24:01;0.45;;;0.40;;
67747;SDS011;54543;50.712;6.070;2022-12-29T00:26:47;1.02;;;0.77;;
67747;SDS011;54543;50.712;6.070;2022-12-29T00:29:36;0.80;;;0.40;;
67747;SDS011;54543;50.712;6.070;2022-12-29T00:32:20;0.63;;;0.60;;
67747;SDS011;54543;50.712;6.070;2022-12-29T00:35:04;1.27;;;0.70;;
67747;SDS011;54543;50.712;6.070;2022-12-29T00:37:33;0.43;;;0.43;;
67747;SDS011;54543;50.712;6.070;2022-12-29T00:40:18;0.63;;;0.60;;
67747;SDS011;54543;50.712;6.070;2022-12-29T00:43:06;2.17;;;0.98;;
67747;SDS011;54543;50.712;6.070;2022-12-29T00:45:51;2.00;;;0.70;;
67747;SDS011;54543;50.712;6.070;2022-12-29T00:48:16;0.80;;;0.70;;
67747;SDS011;54543;50.712;6.070;2022-12-29T00:51:02;2.20;;;0.70;;
67747;SDS011;54543;50.712;6.070;2022-12-29T00:53:27;0.80;;;0.77;;
67747;SDS011;54543;50.712;6.070;2022-12-29T00:55:53;1.25;;;0.90;;
67747;SDS011;54543;50.712;6.070;2022-12-29T00:58:18;1.02;;;0.82;;
67747;SDS011;54543;50.712;6.070;2022-12-29T01:00:44;0.82;;;0.60;;
67747;SDS011;54543;50.712;6.070;2022-12-29T01:03:09;1.13;;;0.70;;
67747;SDS011;54543;50.712;6.070;2022-12-29T01:05:40;1.58;;;0.90;;
67747;SDS011;54543;50.712;6.070;2022-12-29T01:08:05;1.17;;;0.82;;
67747;SDS011;54543;50.712;6.070;2022-12-29T01:10:31;1.80;;;1.10;;
67747;SDS011;54543;50.712;6.070;2022-12-29T01:12:56;1.75;;;1.15;;
67747;SDS011;54543;50.712;6.070;2022-12-29T01:15:21;1.10;;;0.90;;
67747;SDS011;54543;50.712;6.070;2022-12-29T01:17:47;2.75;;;1.10;;
67747;SDS011;54543;50.712;6.070;2022-12-29T01:20:13;1.45;;;1.08;;
67747;SDS011;54543;50.712;6.070;2022-12-29T01:22:38;1.92;;;1.30;;
67747;SDS011;54543;50.712;6.070;2022-12-29T01:25:04;1.45;;;0.90;;
67747;SDS011;54543;50.712;6.070;2022-12-29T01:27:31;2.30;;;1.10;;
67747;SDS011;54543;50.712;6.070;2022-12-29T01:29:56;1.98;;;1.10;;
67747;SDS011;54543;50.712;6.070;2022-12-29T01:32:22;1.42;;;0.93;;
67747;SDS011;54543;50.712;6.070;2022-12-29T01:34:48;2.05;;;1.00;;
67747;SDS011;54543;50.712;6.070;2022-12-29T01:37:14;1.75;;;1.10;;
67747;SDS011;54543;50.712;6.070;2022-12-29T01:39:39;1.73;;;1.00;;
67747;SDS011;54543;50.712;6.070;2022-12-29T01:42:05;1.80;;;1.17;;
67747;SDS011;54543;50.712;6.070;2022-12-29T01:47:16;2.70;;;1.15;;
67747;SDS011;54543;50.712;6.070;2022-12-29T01:49:48;1.83;;;1.10;;
67747;SDS011;54543;50.712;6.070;2022-12-29T01:52:14;3.78;;;1.27;;
67747;SDS011;54543;50.712;6.070;2022-12-29T01:54:43;2.25;;;1.08;;
67747;SDS011;54543;50.712;6.070;2022-12-29T01:57:16;1.10;;;1.00;;
67747;SDS011;54543;50.712;6.070;2022-12-29T02:00:04;1.50;;;1.02;;
67747;SDS011;54543;50.712;6.070;2022-12-29T02:02:33;1.33;;;1.02;;
67747;SDS011;54543;50.712;6.070;2022-12-29T02:04:59;1.27;;;0.95;;
67747;SDS011;54543;50.712;6.070;2022-12-29T02:07:32;1.27;;;0.90;;
67747;SDS011;54543;50.712;6.070;2022-12-29T02:09:58;1.20;;;0.88;;
67747;SDS011;54543;50.712;6.070;2022-12-29T02:12:26;1.95;;;0.85;;
67747;SDS011;54543;50.712;6.070;2022-12-29T02:14:53;4.10;;;1.10;;
67747;SDS011;54543;50.712;6.070;2022-12-29T02:20:13;1.23;;;1.02;;
67747;SDS011;54543;50.712;6.070;2022-12-29T02:23:04;2.28;;;0.80;;
67747;SDS011;54543;50.712;6.070;2022-12-29T02:26:04;0.75;;;0.70;;
67747;SDS011;54543;50.712;6.070;2022-12-29T02:31:44;1.83;;;0.77;;
67747;SDS011;54543;50.712;6.070;2022-12-29T02:34:43;0.80;;;0.60;;
67747;SDS011;54543;50.712;6.070;2022-12-29T02:45:39;1.63;;;0.60;;
67747;SDS011;54543;50.712;6.070;2022-12-29T02:48:12;0.90;;;0.60;;
67747;SDS011;54543;50.712;6.070;2022-12-29T02:51:46;0.45;;;0.40;;
67747;SDS011;54543;50.712;6.070;2022-12-29T02:53:59;0.73;;;0.65;;
67747;SDS011;54543;50.712;6.070;2022-12-29T02:56:43;0.90;;;0.60;;
67747;SDS011;54543;50.712;6.070;2022-12-29T02:59:09;1.42;;;0.70;;
67747;SDS011;54543;50.712;6.070;2022-12-29T03:01:56;0.77;;;0.77;;
67747;SDS011;54543;50.712;6.070;2022-12-29T03:07:29;0.73;;;0.63;;
67747;SDS011;54543;50.712;6.070;2022-12-29T03:19:20;0.98;;;0.73;;
67747;SDS011;54543;50.712;6.070;2022-12-29T03:21:52;1.02;;;0.90;;
67747;SDS011;54543;50.712;6.070;2022-12-29T03:24:43;2.72;;;1.48;;
67747;SDS011;54543;50.712;6.070;2022-12-29T03:27:14;1.70;;;1.02;;
67747;SDS011;54543;50.712;6.070;2022-12-29T03:29:49;1.60;;;0.90;;
67747;SDS011;54543;50.712;6.070;2022-12-29T03:32:18;0.93;;;0.82;;
67747;SDS011;54543;50.712;6.070;2022-12-29T03:34:47;1.75;;;0.95;;
67747;SDS011;54543;50.712;6.070;2022-12-29T03:37:16;0.95;;;0.75;;
67747;SDS011;54543;50.712;6.070;2022-12-29T03:39:44;0.88;;;0.77;;
67747;SDS011;54543;50.712;6.070;2022-12-29T03:42:11;1.85;;;1.13;;
67747;SDS011;54543;50.712;6.070;2022-12-29T03:44:41;2.72;;;0.95;;
67747;SDS011;54543;50.712;6.070;2022-12-29T03:47:09;1.38;;;1.02;;
67747;SDS011;54543;50.712;6.070;2022-12-29T03:49:36;0.73;;;0.73;;
67747;SDS011;54543;50.712;6.070;2022-12-29T03:52:02;1.35;;;0.70;;
67747;SDS011;54543;50.712;6.070;2022-12-29T03:54:29;2.20;;;0.90;;
67747;SDS011;54543;50.712;6.070;2022-12-29T03:56:55;0.82;;;0.80;;
67747;SDS011;54543;50.712;6.070;2022-12-29T03:59:20;0.80;;;0.77;;
67747;SDS011;54543;50.712;6.070;2022-12-29T04:01:46;1.55;;;0.85;;
67747;SDS011;54543;50.712;6.070;2022-12-29T04:04:12;3.17;;;1.17;;
67747;SDS011;54543;50.712;6.070;2022-12-29T04:06:37;1.38;;;1.00;;
67747;SDS011;54543;50.712;6.070;2022-12-29T04:09:03;1.67;;;0.93;;
67747;SDS011;54543;50.712;6.070;2022-12-29T04:11:29;1.17;;;0.70;;
67747;SDS011;54543;50.712;6.070;2022-12-29T04:13:54;1.40;;;0.82;;
67747;SDS011;54543;50.712;6.070;2022-12-29T04:16:20;2.13;;;1.00;;
67747;SDS011;54543;50.712;6.070;2022-12-29T04:18:45;2.25;;;0.90;;
67747;SDS011;54543;50.712;6.070;2022-12-29T04:21:11;2.17;;;0.90;;
67747;SDS011;54543;50.712;6.070;2022-12-29T04:23:37;2.78;;;1.05;;
67747;SDS011;54543;50.712;6.070;2022-12-29T04:26:03;1.30;;;0.70;;
67747;SDS011;54543;50.712;6.070;2022-12-29T04:28:32;1.33;;;1.10;;
67747;SDS011;54543;50.712;6.070;2022-12-29T04:30:58;1.52;;;0.68;;
67747;SDS011;54543;50.712;6.070;2022-12-29T04:33:24;1.83;;;1.00;;
67747;SDS011;54543;50.712;6.070;2022-12-29T04:35:50;1.85;;;0.85;;
67747;SDS011;54543;50.712;6.070;2022-12-29T04:38:18;1.75;;;0.80;;
67747;SDS011;54543;50.712;6.070;2022-12-29T04:40:43;1.33;;;0.80;;
67747;SDS011;54543;50.712;6.070;2022-12-29T04:43:09;0.90;;;0.90;;
67747;SDS011;54543;50.712;6.070;2022-12-29T04:45:35;2.95;;;0.80;;
67747;SDS011;54543;50.712;6.070;2022-12-29T04:48:01;1.73;;;0.93;;
67747;SDS011;54543;50.712;6.070;2022-12-29T04:50:27;0.68;;;0.60;;
67747;SDS011;54543;50.712;6.070;2022-12-29T04:52:53;1.05;;;0.60;;
67747;SDS011;54543;50.712;6.070;2022-12-29T04:55:19;1.20;;;0.80;;
67747;SDS011;54543;50.712;6.070;2022-12-29T04:57:44;0.85;;;0.85;;
67747;SDS011;54543;50.712;6.070;2022-12-29T05:00:10;3.35;;;0.90;;
67747;SDS011;54543;50.712;6.070;2022-12-29T05:02:37;1.88;;;0.93;;
67747;SDS011;54543;50.712;6.070;2022-12-29T05:05:03;1.15;;;0.73;;
67747;SDS011;54543;50.712;6.070;2022-12-29T05:07:29;1.73;;;0.80;;
67747;SDS011;54543;50.712;6.070;2022-12-29T05:09:55;1.33;;;0.82;;
67747;SDS011;54543;50.712;6.070;2022-12-29T05:12:20;1.33;;;0.80;;
67747;SDS011;54543;50.712;6.070;2022-12-29T05:14:46;1.60;;;0.90;;
67747;SDS011;54543;50.712;6.070;2022-12-29T05:17:11;1.70;;;0.93;;
67747;SDS011;54543;50.712;6.070;2022-12-29T05:19:37;1.30;;;0.70;;
67747;SDS011;54543;50.712;6.070;2022-12-29T05:22:03;1.00;;;0.80;;
67747;SDS011;54543;50.712;6.070;2022-12-29T05:24:29;1.02;;;0.63;;
67747;SDS011;54543;50.712;6.070;2022-12-29T05:26:54;1.15;;;0.70;;
67747;SDS011;54543;50.712;6.070;2022-12-29T05:29:20;2.13;;;0.80;;
67747;SDS011;54543;50.712;6.070;2022-12-29T05:31:46;0.93;;;0.70;;
67747;SDS011;54543;50.712;6.070;2022-12-29T05:34:11;2.08;;;0.70;;
67747;SDS011;54543;50.712;6.070;2022-12-29T05:36:37;1.88;;;0.95;;
67747;SDS011;54543;50.712;6.070;2022-12-29T05:39:03;1.13;;;0.60;;
67747;SDS011;54543;50.712;6.070;2022-12-29T05:41:28;1.92;;;0.80;;
67747;SDS011;54543;50.712;6.070;2022-12-29T05:43:54;3.90;;;0.90;;
67747;SDS011;54543;50.712;6.070;2022-12-29T05:46:19;0.95;;;0.77;;
67747;SDS011;54543;50.712;6.070;2022-12-29T05:48:45;1.90;;;1.17;;
67747;SDS011;54543;50.712;6.070;2022-12-29T05:51:10;0.88;;;0.77;;
67747;SDS011;54543;50.712;6.070;2022-12-29T05:53:36;2.13;;;1.05;;
67747;SDS011;54543;50.712;6.070;2022-12-29T05:56:01;0.95;;;0.80;;
67747;SDS011;54543;50.712;6.070;2022-12-29T05:58:27;1.45;;;0.90;;
67747;SDS011;54543;50.712;6.070;2022-12-29T06:00:52;1.73;;;0.90;;
67747;SDS011;54543;50.712;6.070;2022-12-29T06:03:18;3.17;;;0.75;;
67747;SDS011;54543;50.712;6.070;2022-12-29T06:05:46;1.88;;;0.98;;
67747;SDS011;54543;50.712;6.070;2022-12-29T06:08:12;1.88;;;1.00;;
67747;SDS011;54543;50.712;6.070;2022-12-29T06:10:38;1.63;;;0.90;;
67747;SDS011;54543;50.712;6.070;2022-12-29T06:13:04;0.63;;;0.60;;
67747;SDS011;54543;50.712;6.070;2022-12-29T06:15:31;1.30;;;0.77;;
67747;SDS011;54543;50.712;6.070;2022-12-29T06:17:57;1.95;;;1.17;;
67747;SDS011;54543;50.712;6.070;2022-12-29T06:20:22;2.83;;;1.27;;
67747;SDS011;54543;50.712;6.070;2022-12-29T06:22:48;1.52;;;0.82;;
67747;SDS011;54543;50.712;6.070;2022-12-29T06:25:14;1.23;;;0.80;;
67747;SDS011;54543;50.712;6.070;2022-12-29T06:27:40;2.67;;;1.20;;
67747;SDS011;54543;50.712;6.070;2022-12-29T06:30:06;2.05;;;0.80;;
67747;SDS011;54543;50.712;6.070;2022-12-29T06:32:32;3.20;;;1.13;;
67747;SDS011;54543;50.712;6.070;2022-12-29T06:34:58;1.90;;;0.90;;
67747;SDS011;54543;50.712;6.070;2022-12-29T06:37:24;3.25;;;1.20;;
67747;SDS011;54543;50.712;6.070;2022-12-29T06:39:50;2.80;;;1.30;;
67747;SDS011;54543;50.712;6.070;2022-12-29T06:42:15;2.58;;;1.15;;
67747;SDS011;54543;50.712;6.070;2022-12-29T06:44:41;3.22;;;1.00;;
67747;SDS011;54543;50.712;6.070;2022-12-29T06:47:06;4.15;;;1.42;;
67747;SDS011;54543;50.712;6.070;2022-12-29T06:49:32;2.50;;;1.30;;
67747;SDS011;54543;50.712;6.070;2022-12-29T06:51:57;1.40;;;1.10;;
67747;SDS011;54543;50.712;6.070;2022-12-29T06:54:24;7.63;;;3.08;;
67747;SDS011;54543;50.712;6.070;2022-12-29T06:56:50;4.95;;;1.67;;
67747;SDS011;54543;50.712;6.070;2022-12-29T06:59:15;1.60;;;0.95;;
67747;SDS011;54543;50.712;6.070;2022-12-29T07:01:40;2.33;;;1.20;;
67747;SDS011;54543;50.712;6.070;2022-12-29T07:04:06;2.75;;;1.25;;
67747;SDS011;54543;50.712;6.070;2022-12-29T07:06:31;4.63;;;0.95;;
67747;SDS011;54543;50.712;6.070;2022-12-29T07:08:57;1.80;;;1.02;;
67747;SDS011;54543;50.712;6.070;2022-12-29T07:11:23;3.40;;;0.88;;
67747;SDS011;54543;50.712;6.070;2022-12-29T07:13:48;2.13;;;1.30;;
67747;SDS011;54543;50.712;6.070;2022-12-29T07:16:14;2.75;;;1.23;;
67747;SDS011;54543;50.712;6.070;2022-12-29T07:18:40;2.83;;;1.88;;
67747;SDS011;54543;50.712;6.070;2022-12-29T07:21:05;3.20;;;1.30;;
67747;SDS011;54543;50.712;6.070;2022-12-29T07:23:31;3.63;;;1.85;;
67747;SDS011;54543;50.712;6.070;2022-12-29T07:26:04;3.42;;;1.40;;
67747;SDS011;54543;50.712;6.070;2022-12-29T07:28:32;3.47;;;1.05;;
67747;SDS011;54543;50.712;6.070;2022-12-29T07:30:58;2.30;;;1.05;;
67747;SDS011;54543;50.712;6.070;2022-12-29T07:33:24;1.70;;;1.30;;
67747;SDS011;54543;50.712;6.070;2022-12-29T07:35:50;4.47;;;1.30;;
67747;SDS011;54543;50.712;6.070;2022-12-29T07:38:15;6.70;;;2.67;;
67747;SDS011;54543;50.712;6.070;2022-12-29T07:40:42;5.22;;;2.20;;
67747;SDS011;54543;50.712;6.070;2022-12-29T07:43:08;5.35;;;2.38;;
67747;SDS011;54543;50.712;6.070;2022-12-29T07:45:33;3.38;;;2.05;;
67747;SDS011;54543;50.712;6.070;2022-12-29T07:47:59;4.85;;;1.50;;
67747;SDS011;54543;50.712;6.070;2022-12-29T07:50:24;4.10;;;1.70;;
67747;SDS011;54543;50.712;6.070;2022-12-29T07:52:50;3.80;;;1.45;;
67747;SDS011;54543;50.712;6.070;2022-12-29T07:55:16;4.70;;;2.22;;
67747;SDS011;54543;50.712;6.070;2022-12-29T07:57:41;4.10;;;2.00;;
67747;SDS011;54543;50.712;6.070;2022-12-29T08:00:07;3.50;;;1.40;;
67747;SDS011;54543;50.712;6.070;2022-12-29T08:02:34;3.47;;;1.58;;
67747;SDS011;54543;50.712;6.070;2022-12-29T08:05:00;5.00;;;1.98;;
67747;SDS011;54543;50.712;6.070;2022-12-29T08:07:26;4.82;;;1.80;;
67747;SDS011;54543;50.712;6.070;2022-12-29T08:09:52;3.88;;;1.30;;
67747;SDS011;54543;50.712;6.070;2022-12-29T08:12:17;3.78;;;1.30;;
67747;SDS011;54543;50.712;6.070;2022-12-29T08:14:43;6.28;;;1.83;;
67747;SDS011;54543;50.712;6.070;2022-12-29T08:17:08;4.97;;;1.65;;
67747;SDS011;54543;50.712;6.070;2022-12-29T08:19:35;5.95;;;2.55;;
67747;SDS011;54543;50.712;6.070;2022-12-29T08:22:01;5.07;;;2.17;;
67747;SDS011;54543;50.712;6.070;2022-12-29T08:24:26;4.82;;;1.40;;
67747;SDS011;54543;50.712;6.070;2022-12-29T08:26:52;5.07;;;1.83;;
67747;SDS011;54543;50.712;6.070;2022-12-29T08:29:18;8.15;;;2.75;;
67747;SDS011;54543;50.712;6.070;2022-12-29T08:31:44;4.50;;;1.60;;
67747;SDS011;54543;50.712;6.070;2022-12-29T08:34:10;4.07;;;1.33;;
67747;SDS011;54543;50.712;6.070;2022-12-29T08:36:36;6.93;;;2.00;;
67747;SDS011;54543;50.712;6.070;2022-12-29T08:39:01;4.80;;;1.52;;
67747;SDS011;54543;50.712;6.070;2022-12-29T08:41:27;3.75;;;2.03;;
67747;SDS011;54543;50.712;6.070;2022-12-29T08:43:52;3.50;;;1.40;;
67747;SDS011;54543;50.712;6.070;2022-12-29T08:46:18;3.60;;;1.40;;
67747;SDS011;54543;50.712;6.070;2022-12-29T08:48:44;10.15;;;2.33;;
67747;SDS011;54543;50.712;6.070;2022-12-29T08:51:10;5.70;;;2.28;;
67747;SDS011;54543;50.712;6.070;2022-12-29T08:53:35;3.55;;;1.50;;
67747;SDS011;54543;50.712;6.070;2022-12-29T08:56:01;5.88;;;1.45;;
67747;SDS011;54543;50.712;6.070;2022-12-29T08:58:27;3.78;;;1.38;;
67747;SDS011;54543;50.712;6.070;2022-12-29T09:00:54;6.25;;;1.60;;
67747;SDS011;54543;50.712;6.070;2022-12-29T09:03:20;4.55;;;2.03;;
67747;SDS011;54543;50.712;6.070;2022-12-29T09:05:49;5.43;;;1.73;;
67747;SDS011;54543;50.712;6.070;2022-12-29T09:08:15;7.50;;;2.10;;
67747;SDS011;54543;50.712;6.070;2022-12-29T09:10:41;4.70;;;1.50;;
67747;SDS011;54543;50.712;6.070;2022-12-29T09:13:08;6.13;;;1.50;;
67747;SDS011;54543;50.712;6.070;2022-12-29T09:15:33;7.55;;;1.98;;
67747;SDS011;54543;50.712;6.070;2022-12-29T09:17:59;4.53;;;1.38;;
67747;SDS011;54543;50.712;6.070;2022-12-29T09:20:24;4.13;;;1.50;;
67747;SDS011;54543;50.712;6.070;2022-12-29T09:22:50;5.70;;;1.50;;
67747;SDS011;54543;50.712;6.070;2022-12-29T09:25:16;6.30;;;1.85;;
67747;SDS011;54543;50.712;6.070;2022-12-29T09:27:42;4.18;;;1.25;;
67747;SDS011;54543;50.712;6.070;2022-12-29T09:30:09;6.25;;;2.15;;
67747;SDS011;54543;50.712;6.070;2022-12-29T09:32:37;4.35;;;1.67;;
67747;SDS011;54543;50.712;6.070;2022-12-29T09:35:02;7.88;;;1.67;;
67747;SDS011;54543;50.712;6.070;2022-12-29T09:37:28;10.25;;;1.75;;
67747;SDS011;54543;50.712;6.070;2022-12-29T09:39:54;4.53;;;1.30;;
67747;SDS011;54543;50.712;6.070;2022-12-29T09:42:23;5.43;;;2.28;;
67747;SDS011;54543;50.712;6.070;2022-12-29T09:45:10;5.50;;;1.58;;
67747;SDS011;54543;50.712;6.070;2022-12-29T09:47:40;5.15;;;1.90;;
67747;SDS011;54543;50.712;6.070;2022-12-29T09:50:14;3.70;;;1.58;;
67747;SDS011;54543;50.712;6.070;2022-12-29T09:52:50;4.25;;;1.30;;
67747;SDS011;54543;50.712;6.070;2022-12-29T09:55:24;5.38;;;1.13;;
67747;SDS011;54543;50.712;6.070;2022-12-29T10:00:49;2.72;;;1.58;;
67747;SDS011;54543;50.712;6.070;2022-12-29T10:03:22;4.20;;;1.80;;
67747;SDS011;54543;50.712;6.070;2022-12-29T10:06:10;5.10;;;1.48;;
67747;SDS011;54543;50.712;6.070;2022-12-29T10:09:00;4.40;;;1.92;;
67747;SDS011;54543;50.712;6.070;2022-12-29T10:14:40;6.18;;;1.60;;
67747;SDS011;54543;50.712;6.070;2022-12-29T10:20:28;5.30;;;1.63;;
67747;SDS011;54543;50.712;6.070;2022-12-29T10:23:10;5.20;;;1.75;;
67747;SDS011;54543;50.712;6.070;2022-12-29T10:25:41;5.32;;;1.48;;
67747;SDS011;54543;50.712;6.070;2022-12-29T10:28:15;5.05;;;1.42;;
67747;SDS011;54543;50.712;6.070;2022-12-29T10:30:46;7.35;;;1.50;;
67747;SDS011;54543;50.712;6.070;2022-12-29T10:33:15;4.72;;;1.63;;
67747;SDS011;54543;50.712;6.070;2022-12-29T10:35:44;4.72;;;1.52;;
67747;SDS011;54543;50.712;6.070;2022-12-29T10:41:07;5.65;;;1.48;;
67747;SDS011;54543;50.712;6.070;2022-12-29T10:43:45;6.20;;;1.85;;
67747;SDS011;54543;50.712;6.070;2022-12-29T10:46:21;3.25;;;1.15;;
67747;SDS011;54543;50.712;6.070;2022-12-29T10:48:50;6.50;;;1.55;;
67747;SDS011;54543;50.712;6.070;2022-12-29T10:51:29;8.55;;;1.95;;
67747;SDS011;54543;50.712;6.070;2022-12-29T10:56:31;8.05;;;1.63;;
67747;SDS011;54543;50.712;6.070;2022-12-29T10:59:01;4.82;;;1.33;;
67747;SDS011;54543;50.712;6.070;2022-12-29T11:01:39;5.85;;;1.77;;
67747;SDS011;54543;50.712;6.070;2022-12-29T11:07:01;7.78;;;1.40;;
67747;SDS011;54543;50.712;6.070;2022-12-29T11:09:28;9.23;;;1.38;;
67747;SDS011;54543;50.712;6.070;2022-12-29T11:11:56;3.33;;;1.00;;
67747;SDS011;54543;50.712;6.070;2022-12-29T11:14:26;4.53;;;1.52;;
67747;SDS011;54543;50.712;6.070;2022-12-29T11:17:04;4.68;;;1.20;;
67747;SDS011;54543;50.712;6.070;2022-12-29T11:19:30;4.70;;;1.60;;
67747;SDS011;54543;50.712;6.070;2022-12-29T11:22:42;7.28;;;1.40;;
67747;SDS011;54543;50.712;6.070;2022-12-29T11:24:49;3.63;;;1.27;;
67747;SDS011;54543;50.712;6.070;2022-12-29T11:27:17;6.85;;;1.90;;
67747;SDS011;54543;50.712;6.070;2022-12-29T11:29:48;4.07;;;1.50;;
67747;SDS011;54543;50.712;6.070;2022-12-29T11:32:24;7.85;;;1.58;;
67747;SDS011;54543;50.712;6.070;2022-12-29T11:34:52;4.78;;;1.15;;
67747;SDS011;54543;50.712;6.070;2022-12-29T11:37:18;6.32;;;1.55;;
67747;SDS011;54543;50.712;6.070;2022-12-29T11:40:02;4.68;;;1.48;;
67747;SDS011;54543;50.712;6.070;2022-12-29T11:45:06;3.72;;;1.33;;
67747;SDS011;54543;50.712;6.070;2022-12-29T11:47:41;6.65;;;1.23;;
67747;SDS011;54543;50.712;6.070;2022-12-29T11:50:15;6.72;;;1.83;;
67747;SDS011;54543;50.712;6.070;2022-12-29T11:52:44;4.43;;;1.15;;
67747;SDS011;54543;50.712;6.070;2022-12-29T11:55:19;6.40;;;1.45;;
67747;SDS011;54543;50.712;6.070;2022-12-29T11:57:47;6.90;;;2.10;;
67747;SDS011;54543;50.712;6.070;2022-12-29T12:00:18;3.50;;;1.45;;
67747;SDS011;54543;50.712;6.070;2022-12-29T12:02:58;4.45;;;1.30;;
67747;SDS011;54543;50.712;6.070;2022-12-29T12:05:33;5.80;;;1.40;;
67747;SDS011;54543;50.712;6.070;2022-12-29T12:08:11;4.43;;;1.33;;
67747;SDS011;54543;50.712;6.070;2022-12-29T12:10:57;3.47;;;1.70;;
67747;SDS011;54543;50.712;6.070;2022-12-29T12:13:31;4.55;;;1.35;;
67747;SDS011;54543;50.712;6.070;2022-12-29T12:16:04;4.70;;;1.10;;
67747;SDS011;54543;50.712;6.070;2022-12-29T12:18:48;5.47;;;1.70;;
67747;SDS011;54543;50.712;6.070;2022-12-29T12:21:38;6.95;;;1.75;;
67747;SDS011;54543;50.712;6.070;2022-12-29T12:29:13;5.35;;;1.83;;
67747;SDS011;54543;50.712;6.070;2022-12-29T12:31:48;7.20;;;2.85;;
67747;SDS011;54543;50.712;6.070;2022-12-29T12:34:29;5.55;;;1.35;;
67747;SDS011;54543;50.712;6.070;2022-12-29T12:47:18;10.13;;;1.80;;
67747;SDS011;54543;50.712;6.070;2022-12-29T12:53:12;8.10;;;1.50;;
67747;SDS011;54543;50.712;6.070;2022-12-29T12:55:54;5.97;;;1.40;;
67747;SDS011;54543;50.712;6.070;2022-12-29T12:59:37;5.68;;;2.05;;
67747;SDS011;54543;50.712;6.070;2022-12-29T13:10:22;7.05;;;1.33;;
67747;SDS011;54543;50.712;6.070;2022-12-29T13:21:04;5.85;;;1.63;;
67747;SDS011;54543;50.712;6.070;2022-12-29T13:23:54;6.70;;;1.58;;
67747;SDS011;54543;50.712;6.070;2022-12-29T13:26:28;4.22;;;1.60;;
67747;SDS011;54543;50.712;6.070;2022-12-29T13:37:51;5.38;;;1.40;;
67747;SDS011;54543;50.712;6.070;2022-12-29T13:42:48;6.18;;;1.70;;
67747;SDS011;54543;50.712;6.070;2022-12-29T13:45:24;3.55;;;1.45;;
67747;SDS011;54543;50.712;6.070;2022-12-29T13:47:57;2.92;;;1.30;;
67747;SDS011;54543;50.712;6.070;2022-12-29T13:50:31;5.38;;;1.70;;
67747;SDS011;54543;50.712;6.070;2022-12-29T13:55:51;3.65;;;1.15;;
67747;SDS011;54543;50.712;6.070;2022-12-29T14:01:17;6.75;;;1.85;;
67747;SDS011;54543;50.712;6.070;2022-12-29T14:03:56;7.70;;;1.98;;
67747;SDS011;54543;50.712;6.070;2022-12-29T14:06:30;6.97;;;1.80;;
67747;SDS011;54543;50.712;6.070;2022-12-29T14:08:59;3.73;;;1.60;;
67747;SDS011;54543;50.712;6.070;2022-12-29T14:13:58;3.15;;;1.33;;
67747;SDS011;54543;50.712;6.070;2022-12-29T14:16:34;5.55;;;1.73;;
67747;SDS011;54543;50.712;6.070;2022-12-29T14:19:43;4.22;;;1.50;;
67747;SDS011;54543;50.712;6.070;2022-12-29T14:22:02;4.65;;;1.73;;
67747;SDS011;54543;50.712;6.070;2022-12-29T14:26:58;3.42;;;1.02;;
67747;SDS011;54543;50.712;6.070;2022-12-29T14:31:49;5.57;;;1.60;;
67747;SDS011;54543;50.712;6.070;2022-12-29T14:36:54;4.40;;;1.27;;
67747;SDS011;54543;50.712;6.070;2022-12-29T14:44:34;4.20;;;1.63;;
67747;SDS011;54543;50.712;6.070;2022-12-29T14:49:54;4.50;;;1.33;;
67747;SDS011;54543;50.712;6.070;2022-12-29T14:52:24;4.57;;;1.45;;
67747;SDS011;54543;50.712;6.070;2022-12-29T14:54:51;6.90;;;1.38;;
67747;SDS011;54543;50.712;6.070;2022-12-29T14:57:22;7.15;;;1.30;;
67747;SDS011;54543;50.712;6.070;2022-12-29T15:00:00;4.70;;;1.27;;
67747;SDS011;54543;50.712;6.070;2022-12-29T15:02:40;6.00;;;1.70;;
67747;SDS011;54543;50.712;6.070;2022-12-29T15:05:43;6.15;;;1.60;;
67747;SDS011;54543;50.712;6.070;2022-12-29T15:08:09;5.80;;;1.58;;
67747;SDS011;54543;50.712;6.070;2022-12-29T15:10:41;6.47;;;1.58;;
67747;SDS011;54543;50.712;6.070;2022-12-29T15:13:15;5.63;;;1.58;;
67747;SDS011;54543;50.712;6.070;2022-12-29T15:15:43;7.78;;;1.60;;
67747;SDS011;54543;50.712;6.070;2022-12-29T15:18:25;5.13;;;1.23;;
67747;SDS011;54543;50.712;6.070;2022-12-29T15:20:51;5.20;;;1.60;;
67747;SDS011;54543;50.712;6.070;2022-12-29T15:23:19;5.32;;;1.77;;
67747;SDS011;54543;50.712;6.070;2022-12-29T15:25:50;4.63;;;1.10;;
67747;SDS011;54543;50.712;6.070;2022-12-29T15:28:30;4.55;;;1.20;;
67747;SDS011;54543;50.712;6.070;2022-12-29T15:31:10;4.90;;;1.20;;
67747;SDS011;54543;50.712;6.070;2022-12-29T15:33:46;4.90;;;1.10;;
67747;SDS011;54543;50.712;6.070;2022-12-29T15:36:37;3.35;;;1.08;;
67747;SDS011;54543;50.712;6.070;2022-12-29T15:39:17;4.97;;;1.05;;
67747;SDS011;54543;50.712;6.070;2022-12-29T15:41:56;4.47;;;1.38;;
67747;SDS011;54543;50.712;6.070;2022-12-29T15:44:36;5.18;;;1.52;;
67747;SDS011;54543;50.712;6.070;2022-12-29T15:47:05;5.47;;;2.25;;
67747;SDS011;54543;50.712;6.070;2022-12-29T15:52:07;3.63;;;1.42;;
67747;SDS011;54543;50.712;6.070;2022-12-29T15:54:33;4.55;;;1.60;;
67747;SDS011;54543;50.712;6.070;2022-12-29T15:56:59;8.05;;;2.05;;
67747;SDS011;54543;50.712;6.070;2022-12-29T15:59:30;4.50;;;1.80;;
67747;SDS011;54543;50.712;6.070;2022-12-29T16:01:58;7.00;;;1.60;;
67747;SDS011;54543;50.712;6.070;2022-12-29T16:04:26;4.07;;;1.38;;
67747;SDS011;54543;50.712;6.070;2022-12-29T16:06:58;4.50;;;1.70;;
67747;SDS011;54543;50.712;6.070;2022-12-29T16:09:32;4.70;;;1.45;;
67747;SDS011;54543;50.712;6.070;2022-12-29T16:11:59;7.38;;;1.90;;
67747;SDS011;54543;50.712;6.070;2022-12-29T16:14:29;4.97;;;1.92;;
67747;SDS011;54543;50.712;6.070;2022-12-29T16:17:12;5.38;;;2.13;;
67747;SDS011;54543;50.712;6.070;2022-12-29T16:19:41;3.13;;;1.58;;
67747;SDS011;54543;50.712;6.070;2022-12-29T16:22:17;5.95;;;1.70;;
67747;SDS011;54543;50.712;6.070;2022-12-29T16:24:50;11.75;;;4.30;;
67747;SDS011;54543;50.712;6.070;2022-12-29T16:27:21;8.05;;;2.60;;
67747;SDS011;54543;50.712;6.070;2022-12-29T16:29:57;40.63;;;27.98;;
67747;SDS011;54543;50.712;6.070;2022-12-29T16:35:01;26.95;;;17.13;;
67747;SDS011;54543;50.712;6.070;2022-12-29T16:38:18;27.70;;;18.23;;
67747;SDS011;54543;50.712;6.070;2022-12-29T16:40:52;14.55;;;9.75;;
67747;SDS011;54543;50.712;6.070;2022-12-29T16:43:40;10.98;;;5.90;;
67747;SDS011;54543;50.712;6.070;2022-12-29T16:46:18;7.47;;;4.72;;
67747;SDS011;54543;50.712;6.070;2022-12-29T16:48:52;7.78;;;3.97;;
67747;SDS011;54543;50.712;6.070;2022-12-29T16:51:38;8.80;;;2.90;;
67747;SDS011;54543;50.712;6.070;2022-12-29T16:54:05;7.65;;;3.50;;
67747;SDS011;54543;50.712;6.070;2022-12-29T16:56:35;5.63;;;2.35;;
67747;SDS011;54543;50.712;6.070;2022-12-29T16:59:08;9.77;;;2.65;;
67747;SDS011;54543;50.712;6.070;2022-12-29T17:01:50;7.13;;;2.42;;
67747;SDS011;54543;50.712;6.070;2022-12-29T17:04:16;5.40;;;2.00;;
67747;SDS011;54543;50.712;6.070;2022-12-29T17:06:41;7.13;;;1.95;;
67747;SDS011;54543;50.712;6.070;2022-12-29T17:09:20;10.50;;;2.20;;
67747;SDS011;54543;50.712;6.070;2022-12-29T17:11:48;6.85;;;2.13;;
67747;SDS011;54543;50.712;6.070;2022-12-29T17:16:47;6.10;;;2.72;;